Date,TemperatureHighF,TemperatureAvgF,TemperatureLowF,DewpointHighF,DewpointAvgF,DewpointLowF,HumidityHigh,HumidityAvg,HumidityLow,PressureMaxIn,PressureMinIn,WindSpeedMaxMPH,WindSpeedAvgMPH,GustSpeedMaxMPH,PrecipitationSumIn
2013-1-1,78,64,53,62,58,52,98,81,55,30.18,30.01,6,1,15,0.01
2013-1-2,79,67,58,71,62,57,98,88,63,30.05,29.96,6,1,10,0.01
2013-1-3,82,67,59,69,64,58,99,89,59,30.11,29.98,6,1,13,0.08
2013-1-4,66,61,58,62,59,57,97,94,85,30.23,30.10,4,2,10,0.09
2013-1-5,77,66,58,67,62,57,97,86,68,30.25,30.12,5,1,10,0.00
2013-1-6,83,69,62,72,66,61,99,90,67,30.17,30.02,4,1,11,0.00
2013-1-7,70,65,61,66,62,59,96,89,75,30.16,30.07,5,2,9,0.02
2013-1-8,84,71,61,70,65,59,98,84,59,30.18,30.07,4,1,9,0.01
2013-1-9,86,75,69,72,68,65,98,81,50,30.24,30.12,4,1,10,0.00
2013-1-10,84,73,67,70,66,62,98,80,54,30.25,30.15,5,1,12,0.01
2013-1-11,84,72,63,70,64,61,97,80,48,30.24,30.09,6,1,17,0.01
2013-1-12,83,71,64,70,66,63,97,84,57,30.15,30.03,4,1,12,0.01
2013-1-13,84,71,62,69,65,61,98,82,54,30.12,30.02,2,0,9,0.01
2013-1-14,83,70,61,67,62,59,97,79,47,30.16,30.07,4,1,10,0.01
2013-1-15,83,68,58,68,62,57,98,82,54,30.11,30.01,3,1,10,0.01
2013-1-16,83,71,62,69,63,61,98,80,50,30.07,29.97,3,1,9,0.00
2013-1-17,75,63,57,72,59,48,99,88,68,30.12,29.98,9,3,17,0.04
2013-1-18,66,55,42,58,48,35,92,76,60,30.28,30.11,8,4,16,0.03
2013-1-19,73,63,53,63,58,51,93,84,69,30.23,30.08,5,2,11,0.01
2013-1-20,75,66,60,65,62,59,96,87,70,30.14,29.99,3,1,9,0.01
2013-1-21,75,65,59,68,60,54,95,85,69,30.08,29.98,5,1,11,0.02
2013-1-22,66,60,52,55,45,34,85,61,32,30.25,30.04,7,2,15,0.01
2013-1-23,72,56,46,47,40,33,90,59,25,30.34,30.22,4,1,10,0.00
2013-1-24,73,57,42,54,46,40,96,71,38,30.32,30.20,5,1,11,0.00
2013-1-25,77,60,47,58,50,46,98,75,37,30.29,30.16,4,1,10,0.00
2013-1-26,75,60,46,58,52,45,98,78,42,30.26,30.13,3,1,11,0.01
2013-1-27,79,65,54,61,55,51,98,74,38,30.27,30.16,3,1,9,0.01
2013-1-28,83,69,60,65,60,57,93,76,49,30.29,30.15,4,1,12,0.01
2013-1-29,85,70,59,69,64,57,98,82,52,30.21,30.06,6,1,14,0.00
2013-1-30,80,71,63,68,66,62,97,83,64,30.07,29.89,13,4,23,0.00
2013-1-31,70,59,47,67,43,30,90,57,29,30.22,29.91,7,2,14,0.16
2013-2-1,68,54,43,44,35,27,79,54,21,30.33,30.19,8,2,15,0.01
2013-2-2,75,58,44,51,44,37,89,64,32,30.27,30.11,4,1,8,0.00
2013-2-3,71,57,43,54,49,41,95,75,49,30.19,30.06,5,1,12,0.00
2013-2-4,73,55,42,54,44,37,98,74,29,30.13,30.01,5,1,9,0.01
2013-2-5,78,60,44,58,50,40,95,72,44,30.06,29.96,4,1,9,0.01
2013-2-6,81,66,53,63,58,52,96,77,49,30.08,29.99,5,1,9,0.00
2013-2-7,82,70,61,67,63,59,97,82,51,30.03,29.88,10,3,18,0.09
2013-2-8,80,70,59,66,62,57,97,79,45,30.05,29.87,10,3,17,0.09
2013-2-9,79,65,55,57,56,54,97,74,43,30.16,30.04,5,2,14,0.01
2013-2-10,83,69,60,63,60,56,91,74,46,30.21,30.09,7,2,16,0.01
2013-2-11,83,69,59,67,63,58,97,82,55,30.17,30.04,9,2,15,0.00
2013-2-12,82,71,62,71,67,61,98,89,68,30.08,29.93,10,3,18,0.01
2013-2-13,81,73,62,73,69,57,98,88,73,29.97,29.85,12,5,21,0.01
2013-2-14,68,62,59,61,58,56,98,89,74,30.01,29.91,7,1,17,0.46
2013-2-15,72,62,57,61,58,53,98,88,65,30.04,29.92,3,1,7,0.20
2013-2-16,69,59,53,56,49,39,91,72,50,30.09,29.91,11,3,22,0.01
2013-2-17,56,48,39,40,27,18,80,46,24,30.32,30.09,8,3,18,0.00
2013-2-18,72,54,37,47,39,27,87,61,37,30.33,30.18,5,1,16,0.00
2013-2-19,77,63,49,63,55,46,95,77,53,30.18,30.06,8,2,15,0.00
2013-2-20,81,67,56,67,61,55,99,83,54,30.09,29.97,6,1,11,0.00
2013-2-21,83,69,58,69,62,56,96,80,55,30.08,29.95,7,1,12,0.00
2013-2-22,85,72,62,70,66,61,98,84,57,30.05,29.96,8,2,14,0.00
2013-2-23,82,73,67,74,70,66,99,90,74,29.99,29.87,10,3,22,0.01
2013-2-24,83,73,66,73,70,66,100,89,65,29.95,29.86,9,2,15,0.01
2013-2-25,85,73,65,72,68,64,99,86,63,29.90,29.75,9,2,17,0.00
2013-2-26,78,72,65,73,69,63,97,90,72,29.87,29.69,10,3,23,0.44
2013-2-27,76,66,58,63,59,54,97,82,59,29.96,29.85,4,1,9,0.01
2013-2-28,73,63,53,58,54,52,97,76,50,29.99,29.89,6,1,13,0.01
2013-3-1,64,58,54,52,46,40,85,66,52,30.01,29.90,5,2,13,0.00
2013-3-2,59,54,46,44,42,39,81,63,52,30.05,29.96,10,2,21,0.00
2013-3-3,56,50,40,42,38,32,74,63,54,30.14,29.97,9,3,18,0.00
2013-3-4,69,52,36,45,39,34,93,65,28,30.22,30.09,5,1,10,0.00
2013-3-5,73,58,39,61,51,38,97,80,53,30.15,30.03,9,2,14,0.00
2013-3-6,66,60,51,64,50,36,96,70,37,30.12,29.95,9,4,22,0.02
2013-3-7,67,53,44,46,39,33,87,61,33,30.20,30.11,6,2,13,0.02
2013-3-8,76,58,44,49,44,37,94,67,25,30.22,30.09,6,1,10,0.00
2013-3-9,79,63,47,52,47,43,95,62,29,30.19,30.07,4,1,10,0.00
2013-3-10,81,67,55,57,54,50,88,65,40,30.14,30.00,7,2,16,0.00
2013-3-11,80,67,56,62,58,54,94,76,48,30.07,29.88,10,2,17,0.00
2013-3-12,69,64,54,67,61,51,97,88,72,30.03,29.85,8,2,17,0.34
2013-3-13,74,61,53,53,45,34,94,61,24,30.16,30.02,8,2,20,0.06
2013-3-14,69,58,50,51,38,26,92,52,23,30.24,30.12,9,2,20,0.00
2013-3-15,74,57,42,47,41,30,95,62,25,30.27,30.12,7,1,13,0.00
2013-3-16,77,59,43,55,49,41,96,73,38,30.17,30.05,6,1,13,0.00
2013-3-17,77,63,50,61,55,49,96,77,54,30.11,29.98,6,1,13,0.00
2013-3-18,78,67,59,68,63,57,96,87,68,30.01,29.86,8,2,15,0.09
2013-3-19,86,71,63,68,65,62,97,82,48,29.98,29.85,6,1,12,0.01
2013-3-20,76,66,59,64,62,56,97,86,53,29.94,29.78,11,2,20,0.33
2013-3-21,71,60,50,58,46,33,98,65,25,29.96,29.85,6,2,14,0.30
2013-3-22,78,61,44,69,54,41,95,80,50,29.98,29.85,4,1,14,0.17
2013-3-23,82,74,66,75,70,65,98,90,73,29.94,29.77,11,3,21,0.18
2013-3-24,81,73,69,75,71,68,98,94,81,29.81,29.65,11,5,21,0.41
2013-3-25,71,64,53,69,51,37,96,67,36,30.03,29.73,11,3,20,0.36
2013-3-26,58,54,49,48,39,32,80,58,44,30.23,30.02,12,4,23,0.00
2013-3-27,60,50,40,41,37,33,89,63,37,30.31,30.20,7,2,15,0.00
2013-3-28,73,56,42,43,38,26,92,59,18,30.29,30.15,5,1,13,0.00
2013-3-29,78,61,46,53,44,36,92,59,22,30.31,30.15,5,1,11,0.00
2013-3-30,76,63,50,56,51,47,93,68,40,30.23,30.11,7,2,14,0.00
2013-3-31,81,67,54,63,56,-100,91,72,46,30.16,29.99,8,2,15,0.00
2013-4-1,81,70,61,69,65,59,98,84,59,30.02,29.95,8,2,16,0.00
2013-4-2,82,71,62,68,63,58,99,79,49,30.06,29.98,5,1,10,0.01
2013-4-3,87,73,62,69,65,60,97,79,45,30.05,29.91,8,2,14,0.01
2013-4-4,71,70,70,69,68,68,97,93,90,30.00,29.92,2,0,6,0.50
2013-4-13,42,40,38,38,36,34,91,86,82,29.75,29.67,8,3,16,0.02
2013-4-14,44,39,33,34,32,29,90,78,61,30.12,29.75,11,5,18,0.02
2013-5-10,-200,0,200,-100,-100,-100,47,47,47,30.02,30.02,2,2,5,0.00
2013-5-12,-200,0,200,-100,-100,-100,84,84,84,29.74,29.74,9,9,12,0.00
2013-5-13,45,41,38,32,31,30,76,67,55,30.10,30.03,0,0,4,0.00
2013-5-14,57,47,35,35,30,24,88,57,29,30.17,30.03,8,2,14,0.00
2013-5-15,61,51,39,49,40,34,91,69,38,30.06,29.57,7,2,18,0.02
2013-5-16,61,50,49,49,26,-100,92,72,50,29.98,29.61,9,4,19,0.01
2013-5-17,68,54,46,47,37,-100,87,67,29,30.27,29.98,8,2,17,0.00
2013-5-18,72,58,43,50,43,34,93,63,26,30.36,30.25,4,1,8,0.00
2013-5-19,68,56,47,56,49,41,95,77,58,30.33,30.07,4,1,11,0.11
2013-5-20,72,63,56,60,57,55,97,83,56,30.09,30.00,8,2,14,0.22
2013-5-21,65,60,56,56,54,53,94,82,66,30.06,29.90,6,3,13,0.21
2013-5-22,73,64,55,64,59,53,96,85,70,29.91,29.68,4,1,8,0.19
2013-5-23,74,66,56,67,63,52,98,91,73,29.83,29.67,8,3,17,0.77
2013-5-24,53,48,45,52,45,39,97,88,68,30.14,29.83,6,2,19,0.67
2013-5-25,51,48,45,43,39,35,90,72,57,30.17,30.06,8,3,15,0.17
2013-5-26,58,48,43,45,42,40,94,81,55,30.08,29.98,8,2,18,0.64
2013-5-27,70,57,43,43,36,30,94,50,23,30.19,30.07,7,2,17,0.02
2013-5-28,73,61,46,48,43,39,85,55,30,30.23,30.06,4,1,10,0.00
2013-5-29,67,62,58,65,58,48,98,87,61,30.06,29.85,4,0,10,0.86
2013-5-30,82,70,61,67,63,59,98,79,57,30.07,29.93,8,3,17,0.57
2013-5-31,88,78,68,70,66,63,88,69,44,30.03,29.85,14,5,24,0.00
2013-6-1,84,75,68,69,67,64,98,75,59,29.92,29.72,9,3,34,0.52
2013-6-2,77,71,66,70,65,-100,98,86,65,29.77,29.61,15,5,28,1.23
2013-6-3,69,61,55,63,52,45,83,72,51,29.87,29.72,14,7,23,0.12
2013-6-4,66,56,50,51,45,41,81,67,46,30.15,29.85,9,4,21,0.00
2013-6-5,65,57,48,49,42,39,73,59,42,30.27,30.15,6,2,12,0.00
2013-6-6,58,55,50,53,48,42,95,79,59,30.22,30.11,3,1,8,0.28
2013-6-7,58,55,54,55,53,52,97,93,82,30.10,29.92,5,2,9,0.72
2013-6-8,61,56,53,58,55,52,98,95,86,29.99,29.83,4,2,8,0.45
2013-6-9,78,66,58,60,56,51,97,75,40,30.18,29.98,8,3,16,0.02
2013-6-10,78,66,55,61,56,49,95,72,40,30.19,29.93,5,1,14,0.01
2013-6-11,63,58,55,59,56,54,98,95,86,29.94,29.64,8,4,15,1.12
2013-6-12,71,60,54,58,55,53,98,87,57,29.85,29.70,8,2,15,0.97
2013-6-13,75,64,52,60,56,51,100,79,51,29.80,29.67,4,1,9,0.08
2013-6-14,79,67,57,61,53,42,89,64,38,29.86,29.69,6,2,15,0.01
2013-6-15,74,65,54,55,48,42,80,55,39,29.94,29.82,11,4,21,0.00
2013-6-16,64,58,54,56,51,-100,99,83,63,29.85,29.70,6,2,12,0.33
2013-6-17,63,58,55,58,56,54,99,95,81,29.79,29.72,5,2,13,0.37
2013-6-18,69,63,53,53,48,40,93,60,42,30.02,29.92,6,2,12,0.00
2013-6-19,69,59,49,51,45,39,71,59,45,30.14,30.01,6,2,12,0.00
2013-6-20,73,61,52,54,50,46,90,68,44,30.24,30.14,7,4,14,0.00
2013-6-22,66,65,64,64,64,63,98,96,92,30.17,30.06,3,1,7,0.40
2013-6-23,76,69,64,70,67,64,100,92,81,30.07,29.89,3,1,6,0.11
2013-6-24,85,74,68,75,70,66,97,88,71,29.93,29.78,9,4,15,0.34
2013-6-25,81,73,69,75,70,67,95,90,79,29.82,29.67,8,3,18,0.43
2013-6-26,75,69,61,70,66,60,98,91,78,29.77,29.70,6,2,10,0.02
2013-6-27,77,66,59,68,62,56,99,88,70,29.79,29.73,6,2,12,0.02
2013-6-28,60,57,55,58,56,54,100,98,89,29.77,29.44,8,4,20,0.80
2013-6-29,74,66,58,65,62,58,100,88,71,29.64,29.49,5,1,8,0.02
2013-6-30,75,67,61,63,61,59,98,81,63,29.91,29.64,6,2,10,0.01
2013-7-1,75,68,61,60,57,51,91,70,49,30.10,29.91,5,2,11,0.02
2013-7-2,69,65,61,63,57,48,91,76,60,30.12,30.07,6,3,14,0.02
2013-7-3,80,69,62,71,64,59,96,85,72,30.12,30.06,5,1,9,0.00
2013-7-4,83,75,66,75,71,66,100,87,68,30.11,29.97,7,2,12,0.00
2013-7-5,83,76,71,74,71,69,96,86,67,30.06,29.96,9,3,15,0.02
2013-7-6,84,76,72,72,70,67,96,83,59,30.02,29.91,11,5,18,0.02
2013-7-7,79,72,66,72,68,64,98,87,71,29.94,29.88,7,3,14,0.36
2013-7-8,80,69,64,66,60,54,100,76,55,30.01,29.92,5,2,12,0.35
2013-7-9,86,75,65,72,64,58,89,71,54,30.04,29.88,4,1,7,0.00
2013-7-10,81,75,70,74,69,-100,95,86,77,29.89,29.57,11,3,20,0.19
2013-7-11,78,71,64,69,62,57,95,75,51,30.03,29.65,6,2,14,0.16
2013-7-12,80,68,57,63,56,53,85,68,43,30.17,30.03,3,1,6,0.00
2013-7-13,86,72,58,70,62,55,91,72,50,30.26,30.17,5,1,8,0.00
2013-7-14,87,77,67,73,70,65,96,80,56,30.27,30.15,6,2,11,0.00
2013-7-15,89,80,71,73,70,65,95,74,53,30.16,30.09,8,3,15,0.00
2013-7-16,89,81,71,75,69,64,83,69,55,30.20,30.10,5,1,9,0.00
2013-7-17,90,79,73,77,73,70,99,83,62,30.11,29.91,9,4,17,0.77
2013-7-18,85,76,70,76,72,69,98,89,70,29.98,29.84,6,2,13,0.13
2013-7-19,90,77,70,78,73,69,99,89,63,29.84,29.51,18,6,29,1.20
2013-7-21,73,68,61,54,51,48,75,57,44,30.01,29.95,5,2,10,0.00
2013-7-22,78,69,54,59,54,40,76,60,41,30.01,29.79,3,1,9,0.00
2013-7-23,82,70,62,71,59,51,73,69,60,29.80,29.45,5,2,13,0.01
2013-7-24,65,59,53,56,50,43,76,70,59,30.02,29.54,10,3,18,0.02
2013-7-25,75,63,49,56,48,37,76,60,41,30.15,30.03,3,1,8,0.00
2013-7-26,78,67,56,61,53,43,74,63,44,30.11,29.99,5,2,9,0.00
2013-7-27,81,72,61,64,59,48,74,63,51,30.01,29.89,5,1,9,0.00
2013-7-28,77,73,68,71,63,55,91,72,57,29.89,29.82,3,0,6,0.09
2013-7-29,69,68,66,60,59,57,78,75,72,29.98,29.97,5,4,9,2.13
2013-8-5,72,67,59,56,50,44,78,54,42,30.01,29.95,9,4,19,0.00
2013-8-6,79,67,59,59,55,50,86,67,42,30.06,29.98,6,2,10,0.00
2013-8-7,81,70,58,65,60,54,88,73,54,30.05,29.87,5,1,13,0.09
2013-8-8,81,73,68,67,65,62,90,76,58,29.92,29.84,8,2,13,0.09
2013-8-9,80,72,66,69,66,62,91,81,61,29.89,29.70,5,1,10,0.00
2013-8-10,72,67,61,65,54,47,86,63,47,29.97,29.72,11,5,20,0.00
2013-8-11,76,68,59,59,56,53,83,67,46,30.01,29.91,9,5,18,0.00
2013-8-12,77,69,60,60,57,55,86,68,47,29.94,29.82,9,4,17,0.00
2013-8-13,78,66,60,64,58,-100,94,79,56,29.82,29.61,8,1,20,0.32
2013-8-14,68,60,58,59,50,-100,94,76,55,29.90,29.65,8,3,16,0.28
2013-8-15,73,59,57,58,40,-100,84,66,53,29.99,29.90,13,6,22,0.02
2013-8-16,75,63,58,61,51,-100,88,72,53,30.19,29.99,6,2,14,0.00
2013-8-17,76,64,53,58,52,48,85,66,44,30.29,30.19,5,1,9,0.00
2013-8-18,79,68,55,62,55,-100,94,68,42,30.22,30.00,7,2,14,0.00
2013-8-19,81,67,62,64,46,-100,83,67,55,30.01,29.90,10,4,16,0.00
2013-8-20,83,72,64,68,60,-100,86,71,53,30.01,29.93,11,5,16,0.00
2013-8-21,84,75,67,70,65,62,85,72,59,30.05,29.89,8,5,15,0.00
2013-8-22,75,70,65,69,66,61,94,86,74,29.91,29.77,9,3,15,0.91
2013-8-23,75,66,58,60,54,51,85,67,46,30.17,29.87,5,2,11,0.15
2013-8-24,74,64,51,58,52,48,93,69,45,30.32,30.17,6,1,11,0.00
2013-8-25,76,65,55,60,54,-100,93,72,49,30.32,30.03,7,2,14,0.01
2013-8-26,75,69,64,70,66,59,92,88,79,30.05,29.82,6,2,12,0.17
2013-8-27,79,71,67,68,67,66,96,87,69,29.89,29.83,3,1,6,0.00
2013-8-28,86,79,67,71,68,61,81,70,55,29.97,29.84,5,2,12,0.00
2013-8-29,77,69,62,66,62,58,89,79,66,30.04,29.96,5,2,10,0.00
2013-8-30,76,67,60,70,64,58,94,88,77,29.98,29.71,5,1,13,0.54
2013-8-31,77,70,67,68,66,64,96,87,71,29.78,29.70,3,1,7,0.02
2013-9-1,81,72,65,66,60,-100,93,71,49,29.87,29.77,5,1,10,0.00
2013-9-2,72,65,60,67,61,56,96,88,75,29.80,29.62,5,2,12,0.55
2013-9-3,69,65,61,65,60,57,97,85,72,29.74,29.64,9,5,16,0.01
2013-9-4,66,61,55,58,56,47,91,83,70,29.91,29.74,10,4,15,0.00
2013-9-5,62,56,49,48,43,37,86,63,42,30.14,29.90,5,2,15,0.00
2013-9-6,68,58,48,52,46,41,86,64,44,30.20,29.96,10,6,21,0.00
2013-9-7,68,63,59,61,56,50,91,78,66,29.96,29.78,10,6,19,0.00
2013-9-8,63,57,52,61,43,-100,92,63,41,30.06,29.76,7,2,19,0.00
2013-9-9,66,57,48,55,48,42,87,72,53,30.13,29.96,9,3,18,0.00
2013-9-10,64,60,57,62,58,52,97,93,80,29.98,29.88,2,0,6,0.14
2013-9-11,85,71,59,72,66,58,98,87,62,29.92,29.84,8,2,15,0.17
2013-9-12,74,69,65,69,66,61,97,91,77,29.87,29.59,9,2,15,1.52
2013-9-13,65,57,53,62,53,50,93,86,72,29.87,29.60,3,1,11,0.20
2013-9-14,59,54,50,51,48,46,90,83,69,30.01,29.86,7,2,14,0.13
2013-9-15,65,56,50,57,49,-100,91,82,70,30.05,29.95,7,3,13,0.01
2013-9-16,59,51,44,56,43,36,93,74,45,30.34,29.95,6,2,14,0.31
2013-9-17,64,53,43,49,43,38,93,70,48,30.45,30.25,6,2,12,0.01
2013-9-18,56,50,46,47,45,42,89,83,76,30.25,30.07,4,2,7,0.00
2013-9-19,77,61,48,60,53,46,92,77,49,30.09,29.97,5,1,9,0.00
2013-9-20,81,68,54,63,58,52,94,74,46,30.01,29.78,3,0,9,0.00
2013-9-21,68,64,61,63,60,56,96,86,75,29.78,29.52,5,1,9,0.62
2013-9-22,61,54,47,59,48,-100,96,82,63,29.90,29.49,7,3,14,0.21
2013-9-23,55,49,43,44,41,38,88,74,61,30.06,29.90,8,3,17,0.01
2013-9-24,67,54,46,46,43,40,85,67,43,30.05,29.87,8,2,16,0.00
2013-9-25,70,55,44,52,47,42,94,76,52,30.02,29.93,3,0,6,0.00
2013-9-26,70,54,45,53,47,43,92,81,49,30.16,30.02,2,0,5,0.00
2013-9-27,73,58,49,56,51,47,93,80,51,30.28,30.16,3,0,6,0.00
2013-9-28,76,58,46,57,50,45,98,80,42,30.35,30.19,4,0,7,0.00
2013-9-29,79,58,47,57,49,-100,96,78,40,30.19,30.00,3,0,8,0.00
2013-9-30,79,60,49,56,52,47,96,77,37,30.05,29.94,2,0,6,0.00
2013-10-1,65,62,54,57,55,51,91,78,73,29.95,29.81,4,2,8,0.00
2013-10-2,75,67,60,61,52,41,89,63,37,29.91,29.77,10,5,23,0.00
2013-10-3,74,62,51,54,48,42,86,64,41,30.08,29.92,6,2,10,0.00
2013-10-4,64,59,54,54,48,44,83,69,52,30.10,30.00,3,1,6,0.00
2013-10-5,69,58,53,49,44,39,83,63,37,30.15,30.07,3,0,7,0.00
2013-10-6,57,53,46,55,45,38,96,74,57,30.16,29.84,5,2,13,0.21
2013-10-7,74,61,56,62,56,45,93,84,66,29.84,29.47,19,4,30,0.35
2013-10-8,59,51,44,45,42,40,93,73,53,30.35,29.79,14,5,28,0.02
2013-10-9,70,50,39,49,43,37,96,78,40,30.43,30.27,4,0,7,0.00
2013-10-10,71,52,41,51,45,39,98,80,41,30.28,30.15,5,1,8,0.00
2013-10-11,76,54,43,55,47,41,96,80,41,30.18,30.11,1,0,5,0.00
2013-10-12,74,57,48,55,51,45,91,80,52,30.27,30.15,4,1,9,0.00
2013-10-13,71,55,47,55,49,-100,97,83,55,30.35,30.21,2,0,6,0.00
2013-12-9,86,72,65,72,67,64,98,86,55,30.17,30.07,4,0,11,0.00
2013-12-10,84,70,61,72,66,60,99,89,64,30.17,30.08,7,1,11,0.01
2013-12-11,86,72,64,70,66,61,98,83,51,30.24,30.14,4,1,11,0.04
2013-12-12,74,66,54,66,57,38,97,77,39,30.31,30.16,5,2,11,0.00
2013-12-13,78,64,50,58,52,36,86,67,47,30.29,30.07,7,2,14,0.00
2013-12-14,84,71,61,72,64,-100,96,82,62,30.07,29.92,9,2,16,0.00
2013-12-15,75,71,61,73,66,58,96,84,66,30.09,29.88,9,3,15,0.00
2013-12-16,67,58,51,58,50,44,92,77,50,30.19,30.07,5,1,9,0.00
2013-12-17,76,57,46,56,49,43,89,75,46,30.22,30.10,3,1,9,0.00
2013-12-18,74,59,49,51,45,40,86,64,31,30.25,30.16,5,2,11,0.00
2013-12-19,80,61,47,58,51,44,92,73,40,30.25,30.13,6,1,10,0.00
2013-12-20,85,71,58,69,63,54,91,76,56,30.17,30.07,4,2,12,0.00